Etusivu
METAR-TAF:

METAR-TAF

Lentoasemat :

Oberpfaffenhofen, Saksa

Leveyspiiri: 48-05N, Pituuspiiri: 011-17E, korkeus merenpinnasta: 600 m

Tämänhetkinen sää

Tämä raportti tehtiin 16 minuuttia sitten, kello 19.50 UTC
Tuuli 2 kn eri suunnista
Lämpötila 9°C
Kosteus 43%
Ilmanpaine 1000 hPa
Näkyvyys 10 km tai enemmän

METAR: EDMO 031950Z AUTO VRB02KT 9999 // BKN240/// 09/M03 Q1000

Aika: 21:06 (20:06 UTC)


TAF: puuttuu

Säähavainnot ja -ennusteet yli 4000 lentoasemalta (METAR- ja TAF-raportit).

Käytössä olevat sääasemat on merkitty karttaan keltaisilla ja punaisilla pisteillä.

Aseta hiiri pisteen päälle nähdäksesi sääaseman nimen.

Klikkaa sitten nähdäksesi säähavainnot ja -ennusteet.

Kartan vaihtaminen: klikkaa mustalla rastilla varustettuja vihreitä pisteitä, niin voit zoomata sisään; viivalla varustettua vihreää pistettä, niin voit zoomata ulos tai vihreitä nuolia, niin pääset viereisille kartoille.


METAR-TAF: